createdAt,value
2019-05-13T00:01:17.693Z,4.77
2019-05-13T00:03:46.264Z,8.97
2019-05-13T00:06:14.692Z,8.33
2019-05-13T00:08:44.016Z,4.40
2019-05-13T00:11:13.662Z,3.67
2019-05-13T00:13:44.345Z,4.80
2019-05-13T00:16:14.135Z,4.00
2019-05-13T00:18:44.414Z,5.10
2019-05-13T00:21:14.031Z,7.27
2019-05-13T00:23:44.238Z,7.30
2019-05-13T00:26:14.130Z,5.23
2019-05-13T00:28:44.346Z,7.43
2019-05-13T00:31:13.804Z,6.53
2019-05-13T00:33:44.284Z,5.30
2019-05-13T00:36:14.266Z,5.17
2019-05-13T00:38:44.003Z,4.60
2019-05-13T00:41:14.216Z,4.00
2019-05-13T00:43:44.500Z,2.77
2019-05-13T00:46:14.210Z,5.17
2019-05-13T00:48:43.948Z,5.50
2019-05-13T00:51:14.108Z,6.80
2019-05-13T00:53:44.199Z,13.57
2019-05-13T00:56:13.353Z,4.70
2019-05-13T00:58:43.741Z,6.83
2019-05-13T01:01:13.916Z,5.20
2019-05-13T01:03:44.039Z,6.03
2019-05-13T01:06:13.351Z,5.93
2019-05-13T01:08:44.104Z,7.37
2019-05-13T01:11:13.332Z,3.90
2019-05-13T01:13:43.338Z,5.67
2019-05-13T01:16:13.973Z,4.13
2019-05-13T01:18:43.199Z,5.13
2019-05-13T01:21:13.274Z,4.97
2019-05-13T01:23:43.903Z,9.10
2019-05-13T01:26:14.008Z,10.80
2019-05-13T01:28:43.625Z,5.23
2019-05-13T01:31:13.234Z,7.37
2019-05-13T01:33:44.307Z,4.63
2019-05-13T01:36:13.426Z,7.87
2019-05-13T01:38:43.621Z,5.07
2019-05-13T01:41:13.625Z,5.50
2019-05-13T01:43:44.096Z,8.57
2019-05-13T01:46:13.450Z,7.47
2019-05-13T01:48:43.725Z,5.87
2019-05-13T01:51:13.663Z,5.63
2019-05-13T01:53:44.023Z,9.57
2019-05-13T01:56:14.099Z,7.30
2019-05-13T01:58:44.730Z,7.23
2019-05-13T02:01:13.857Z,5.97
2019-05-13T02:03:44.239Z,4.97
2019-05-13T02:06:14.104Z,9.13
2019-05-13T02:08:43.982Z,5.93
2019-05-13T02:11:13.290Z,6.60
2019-05-13T02:13:44.484Z,6.27
2019-05-13T02:16:14.360Z,6.47
2019-05-13T02:18:44.235Z,8.47
2019-05-13T02:21:13.914Z,6.40
2019-05-13T02:23:44.281Z,9.93
2019-05-13T02:26:13.595Z,9.03
2019-05-13T02:28:43.635Z,6.83
2019-05-13T02:31:17.140Z,9.40
2019-05-13T02:33:42.607Z,7.37
2019-05-13T02:36:13.533Z,6.47
2019-05-13T02:38:42.726Z,8.13
2019-05-13T02:41:13.360Z,6.87
2019-05-13T02:43:45.070Z,7.17
2019-05-13T02:46:12.830Z,6.80
2019-05-13T02:48:42.172Z,6.93
2019-05-13T02:51:12.404Z,10.63
2019-05-13T02:53:43.682Z,6.53
2019-05-13T02:56:11.783Z,10.37
2019-05-13T02:58:42.833Z,9.53
2019-05-13T03:01:12.549Z,7.80
2019-05-13T03:03:44.145Z,8.93
2019-05-13T03:06:13.263Z,10.63
2019-05-13T03:08:49.434Z,11.73
2019-05-13T03:11:12.661Z,9.17
2019-05-13T03:13:42.569Z,8.60
2019-05-13T03:16:13.564Z,7.83
2019-05-13T03:18:43.524Z,7.13
2019-05-13T03:21:13.013Z,8.93
2019-05-13T03:23:43.940Z,6.77
2019-05-13T03:26:12.984Z,10.10
2019-05-13T03:28:43.601Z,7.17
2019-05-13T03:31:16.580Z,8.83
2019-05-13T03:33:46.148Z,12.47
2019-05-13T03:36:16.547Z,17.30
2019-05-13T03:38:59.675Z,8.27
2019-05-13T03:41:12.541Z,8.90
2019-05-13T03:43:43.050Z,6.80
2019-05-13T03:46:12.413Z,10.90
2019-05-13T03:48:42.788Z,7.97
2019-05-13T03:51:13.303Z,9.23
2019-05-13T03:53:43.311Z,9.57
2019-05-13T03:56:12.914Z,11.43
2019-05-13T03:58:43.399Z,9.30
2019-05-13T04:01:12.994Z,13.47
2019-05-13T04:03:43.850Z,7.80
2019-05-13T04:06:13.464Z,9.63
2019-05-13T04:08:43.479Z,11.43
2019-05-13T04:11:12.696Z,9.60
2019-05-13T04:13:42.867Z,15.20
2019-05-13T04:16:12.676Z,13.17
2019-05-13T04:18:42.723Z,14.03
2019-05-13T04:21:13.092Z,12.70
2019-05-13T04:23:42.508Z,11.17
2019-05-13T04:26:14.603Z,11.30
2019-05-13T04:28:43.412Z,10.13
2019-05-13T04:31:14.243Z,11.77
2019-05-13T04:33:42.769Z,15.70
2019-05-13T04:36:13.381Z,16.53
2019-05-13T04:38:44.281Z,10.53
2019-05-13T04:41:12.128Z,10.03
2019-05-13T04:43:43.573Z,13.57
2019-05-13T04:46:13.996Z,20.50
2019-05-13T04:48:44.300Z,9.40
2019-05-13T04:51:13.560Z,10.87
2019-05-13T04:53:42.392Z,9.07
2019-05-13T04:56:13.808Z,10.13
2019-05-13T04:58:42.830Z,12.80
2019-05-13T05:01:26.701Z,14.20
2019-05-13T05:04:03.414Z,10.93
2019-05-13T05:06:42.379Z,13.63
2019-05-13T05:09:32.973Z,12.03
2019-05-13T05:12:06.997Z,7.83
2019-05-13T05:14:56.725Z,9.17
2019-05-13T05:17:34.428Z,11.20
2019-05-13T05:20:17.734Z,7.60
2019-05-13T05:23:11.038Z,11.83
2019-05-13T05:25:58.484Z,13.37
2019-05-13T05:28:41.866Z,11.93
2019-05-13T05:31:19.654Z,13.37
2019-05-13T05:34:24.766Z,13.27
2019-05-13T05:37:24.774Z,17.60
2019-05-13T05:39:55.065Z,11.70
2019-05-13T05:42:24.552Z,11.97
2019-05-13T05:44:53.498Z,16.07
2019-05-13T05:47:22.039Z,13.93
2019-05-13T05:49:51.581Z,10.40
2019-05-13T05:52:21.253Z,12.57
2019-05-13T05:54:51.516Z,15.57
2019-05-13T05:57:22.345Z,14.87
2019-05-13T05:59:51.723Z,12.30
2019-05-13T06:02:22.872Z,13.07
2019-05-13T06:04:51.895Z,13.10
2019-05-13T06:07:21.970Z,16.33
2019-05-13T06:09:51.590Z,15.40
2019-05-13T06:12:21.438Z,13.07
2019-05-13T06:14:52.470Z,16.57
2019-05-13T06:17:21.882Z,12.63
2019-05-13T06:19:51.247Z,13.37
2019-05-13T06:22:21.619Z,17.47
2019-05-13T06:24:52.016Z,14.33
2019-05-13T06:27:21.309Z,15.03
2019-05-13T06:29:52.623Z,12.83
2019-05-13T06:32:25.455Z,12.73
2019-05-13T06:34:52.470Z,17.17
2019-05-13T06:37:21.724Z,13.90
2019-05-13T06:39:51.245Z,14.57
2019-05-13T06:42:22.022Z,11.23
2019-05-13T06:44:51.455Z,14.97
2019-05-13T06:47:21.925Z,15.30
2019-05-13T06:49:51.642Z,14.67
2019-05-13T06:52:21.208Z,11.00
2019-05-13T06:54:52.044Z,18.23
2019-05-13T06:57:21.970Z,11.17
2019-05-13T06:59:52.039Z,14.23
2019-05-13T07:02:21.614Z,11.67
2019-05-13T07:04:51.618Z,14.03
2019-05-13T07:07:21.933Z,12.43
2019-05-13T07:09:51.753Z,12.77
2019-05-13T07:12:21.942Z,12.53
2019-05-13T07:14:51.774Z,11.33
2019-05-13T07:17:22.281Z,18.53
2019-05-13T07:19:51.678Z,12.87
2019-05-13T07:22:22.993Z,10.37
2019-05-13T07:24:51.982Z,11.40
2019-05-13T07:27:22.960Z,13.77
2019-05-13T07:29:51.476Z,14.23
2019-05-13T07:32:22.139Z,14.83
2019-05-13T07:34:53.323Z,11.20
2019-05-13T07:37:21.921Z,9.80
2019-05-13T07:39:52.829Z,14.37
2019-05-13T07:42:22.158Z,15.10
2019-05-13T07:44:52.173Z,15.10
2019-05-13T07:47:22.319Z,12.57
2019-05-13T07:49:51.586Z,15.87
2019-05-13T07:52:22.513Z,11.27
2019-05-13T07:54:52.097Z,10.43
2019-05-13T07:57:21.511Z,13.43
2019-05-13T07:59:52.413Z,10.53
2019-05-13T08:02:21.727Z,11.63
2019-05-13T08:04:53.044Z,10.33
2019-05-13T08:07:22.663Z,9.67
2019-05-13T08:09:51.832Z,12.87
2019-05-13T08:12:21.590Z,14.27
2019-05-13T08:14:52.169Z,11.57
2019-05-13T08:17:22.420Z,14.33
2019-05-13T08:19:52.086Z,20.93
2019-05-13T08:22:22.063Z,12.47
2019-05-13T08:24:53.820Z,10.03
2019-05-13T08:27:29.787Z,10.43
2019-05-13T08:29:52.181Z,14.43
2019-05-13T08:32:22.156Z,8.83
2019-05-13T08:34:52.490Z,9.27
2019-05-13T08:37:21.651Z,12.23
2019-05-13T08:39:52.153Z,11.57
2019-05-13T08:42:23.341Z,12.17
2019-05-13T08:44:52.306Z,8.30
2019-05-13T08:47:22.440Z,9.43
2019-05-13T08:49:52.042Z,8.43
2019-05-13T08:52:21.967Z,8.47
2019-05-13T08:54:52.410Z,8.73
2019-05-13T08:57:22.117Z,19.17
2019-05-13T08:59:51.530Z,7.20
2019-05-13T09:02:22.146Z,10.70
2019-05-13T09:04:51.414Z,9.50
2019-05-13T09:07:23.915Z,8.50
2019-05-13T09:09:51.251Z,9.50
2019-05-13T09:12:29.583Z,7.93
2019-05-13T09:14:52.371Z,7.43
2019-05-13T09:17:21.365Z,7.90
2019-05-13T09:19:52.012Z,8.40
2019-05-13T09:22:21.368Z,9.40
2019-05-13T09:24:52.790Z,5.47
2019-05-13T09:27:22.401Z,10.40
2019-05-13T09:29:51.849Z,7.93
2019-05-13T09:32:21.505Z,4.90
2019-05-13T09:34:52.549Z,5.10
2019-05-13T09:37:22.458Z,10.00
2019-05-13T09:39:51.829Z,7.67
2019-05-13T09:42:21.756Z,11.60
2019-05-13T09:44:52.501Z,8.17
2019-05-13T09:47:21.693Z,13.47
2019-05-13T09:49:50.281Z,8.37
2019-05-13T09:52:18.789Z,7.77
2019-05-13T09:54:47.342Z,9.60
2019-05-13T09:57:15.851Z,6.73
2019-05-13T09:59:44.482Z,7.70
2019-05-13T10:02:12.954Z,4.20
2019-05-13T10:04:43.556Z,5.97
2019-05-13T10:07:12.513Z,7.30
2019-05-13T10:09:42.999Z,9.40
2019-05-13T10:12:12.170Z,7.27
2019-05-13T10:14:40.935Z,9.73
2019-05-13T10:17:09.438Z,7.53
2019-05-13T10:19:37.906Z,5.10
2019-05-13T10:22:06.451Z,7.20
2019-05-13T10:24:34.899Z,5.23
2019-05-13T10:27:03.538Z,7.73
2019-05-13T10:29:32.324Z,5.53
2019-05-13T10:32:02.704Z,6.63
2019-05-13T10:34:32.439Z,3.63
2019-05-13T10:37:02.082Z,4.70
2019-05-13T10:39:31.167Z,5.27
2019-05-13T10:42:03.171Z,5.57
2019-05-13T10:44:29.795Z,4.63
2019-05-13T10:46:58.258Z,5.37
2019-05-13T10:49:26.758Z,4.03
2019-05-13T10:51:55.421Z,5.40
2019-05-13T10:54:23.906Z,4.33
2019-05-13T10:56:54.193Z,5.43
2019-05-13T10:59:23.162Z,5.30
2019-05-13T11:01:51.717Z,7.60
2019-05-13T11:04:22.090Z,4.33
2019-05-13T11:06:52.407Z,3.20
2019-05-13T11:09:21.767Z,6.33
2019-05-13T11:11:52.765Z,2.83
2019-05-13T11:14:21.956Z,3.67
2019-05-13T11:16:52.378Z,6.03
2019-05-13T11:19:23.185Z,4.80
2019-05-13T11:21:51.374Z,5.93
2019-05-13T11:24:22.103Z,3.67
2019-05-13T11:26:52.269Z,4.77
2019-05-13T11:29:22.826Z,3.37
2019-05-13T11:31:52.360Z,5.53
2019-05-13T11:34:22.119Z,5.47
2019-05-13T11:36:53.380Z,5.00
2019-05-13T11:39:21.748Z,7.17
2019-05-13T11:41:50.646Z,4.43
2019-05-13T11:44:19.193Z,5.60
2019-05-13T11:46:47.767Z,4.97
2019-05-13T11:49:16.275Z,3.47
2019-05-13T11:51:45.295Z,5.03
2019-05-13T11:54:14.281Z,5.07
2019-05-13T11:56:49.244Z,9.83
2019-05-13T11:59:14.031Z,6.73
2019-05-13T12:01:42.991Z,3.55
2019-05-13T12:04:11.539Z,5.47
2019-05-13T12:06:45.835Z,6.30
2019-05-13T12:09:12.974Z,6.17
2019-05-13T12:11:40.362Z,3.53
2019-05-13T12:14:34.667Z,4.73
2019-05-13T12:16:42.106Z,10.10
2019-05-13T12:19:11.845Z,3.47
2019-05-13T12:21:43.193Z,5.33
2019-05-13T12:24:11.386Z,4.60
2019-05-13T12:26:43.027Z,4.83
2019-05-13T12:29:17.895Z,6.55
2019-05-13T12:31:40.294Z,6.33
2019-05-13T12:34:12.773Z,17.00
2019-05-13T12:36:38.942Z,8.70
2019-05-13T12:39:08.057Z,6.47
2019-05-13T12:41:36.562Z,5.07
2019-05-13T12:44:05.047Z,4.85
2019-05-13T12:46:33.506Z,5.67
2019-05-13T12:49:03.951Z,4.58
2019-05-13T12:51:32.704Z,4.08
2019-05-13T12:54:03.740Z,8.13
2019-05-13T12:56:33.330Z,5.70
2019-05-13T12:59:02.919Z,5.12
2019-05-13T13:01:32.393Z,4.35
2019-05-13T13:04:02.201Z,3.27
2019-05-13T13:06:39.581Z,6.47
2019-05-13T13:09:02.282Z,3.47
2019-05-13T13:11:32.364Z,4.80
2019-05-13T13:16:34.626Z,3.90
2019-05-13T13:19:02.452Z,3.55
2019-05-13T13:24:04.389Z,6.30
2019-05-13T13:26:33.494Z,5.42
2019-05-13T13:29:01.889Z,4.12
2019-05-13T13:31:33.438Z,5.42
2019-05-13T13:34:11.269Z,3.27
2019-05-13T13:36:33.639Z,5.40
2019-05-13T13:39:03.833Z,2.67
2019-05-13T13:41:32.767Z,4.30
2019-05-13T13:44:05.589Z,6.30
2019-05-13T13:46:42.231Z,4.20
2019-05-13T13:49:03.497Z,6.12
2019-05-13T13:51:34.364Z,4.92
2019-05-13T13:54:02.167Z,4.55
2019-05-13T13:56:32.712Z,5.40
2019-05-13T13:59:04.379Z,2.37
2019-05-13T14:01:33.287Z,5.40
2019-05-13T14:04:05.220Z,5.47
2019-05-13T14:06:52.391Z,4.62
2019-05-13T14:07:13.139Z,3.98
2019-05-13T14:09:06.941Z,6.45
2019-05-13T14:11:35.496Z,5.95
2019-05-13T14:14:04.047Z,6.03
2019-05-13T14:16:35.367Z,5.17
2019-05-13T14:19:03.769Z,9.75
2019-05-13T14:21:32.526Z,5.53
2019-05-13T14:24:02.641Z,6.50
2019-05-13T14:26:33.032Z,3.80
2019-05-13T14:29:02.682Z,8.25
2019-05-13T14:31:32.356Z,4.75
2019-05-13T14:34:03.385Z,7.75
2019-05-13T14:36:31.397Z,2.77
2019-05-13T14:39:02.594Z,4.58
2019-05-13T14:41:31.278Z,4.30
2019-05-13T14:43:59.951Z,4.85
2019-05-13T14:46:43.963Z,4.47
2019-05-13T14:49:01.650Z,4.40
2019-05-13T14:51:32.366Z,3.83
2019-05-13T14:54:02.730Z,5.42
2019-05-13T14:56:32.319Z,6.17
2019-05-13T14:59:02.688Z,7.60
2019-05-13T15:01:31.970Z,4.12
2019-05-13T15:04:02.847Z,4.55
2019-05-13T15:06:32.706Z,6.35
2019-05-13T15:09:01.882Z,4.83
2019-05-13T15:11:32.376Z,8.88
2019-05-13T15:14:02.469Z,3.17
2019-05-13T15:16:31.710Z,3.42
2019-05-13T15:19:01.626Z,3.05
2019-05-13T15:21:32.090Z,6.53
2019-05-13T15:24:02.199Z,8.58
2019-05-13T15:26:30.965Z,4.60
2019-05-13T15:29:04.193Z,10.25
2019-05-13T15:31:31.593Z,3.42
2019-05-13T15:34:02.500Z,4.90
2019-05-13T15:36:31.562Z,8.05
2019-05-13T15:39:01.391Z,4.53
2019-05-13T15:41:30.174Z,5.03
2019-05-13T15:43:58.754Z,6.17
2019-05-13T15:46:27.255Z,3.72
2019-05-13T15:48:55.922Z,6.70
2019-05-13T15:51:24.508Z,3.90
2019-05-13T15:53:53.094Z,3.85
2019-05-13T15:56:22.417Z,6.08
2019-05-13T15:58:53.054Z,4.78
2019-05-13T16:01:22.991Z,5.83
2019-05-13T16:03:52.390Z,5.05
2019-05-13T16:06:21.230Z,4.55
2019-05-13T16:08:51.940Z,4.45
2019-05-13T16:11:21.957Z,4.75
2019-05-13T16:13:51.858Z,8.40
2019-05-13T16:16:21.802Z,6.33
2019-05-13T16:18:51.541Z,5.58
2019-05-13T16:21:20.266Z,4.62
2019-05-13T16:23:48.700Z,5.53
2019-05-13T16:26:17.250Z,10.23
2019-05-13T16:28:45.972Z,6.87
2019-05-13T16:31:14.642Z,7.58
2019-05-13T16:33:43.310Z,6.05
2019-05-13T16:36:12.855Z,5.85
2019-05-13T16:38:44.528Z,6.30
2019-05-13T16:41:13.389Z,6.40
2019-05-13T16:43:42.610Z,5.50
2019-05-13T16:46:12.191Z,6.50
2019-05-13T16:48:41.594Z,4.80
2019-05-13T16:51:12.556Z,4.35
2019-05-13T16:53:42.196Z,6.65
2019-05-13T16:56:25.410Z,6.42
2019-05-13T16:58:41.704Z,4.80
2019-05-13T17:01:11.790Z,6.78
2019-05-13T17:03:41.392Z,6.10
2019-05-13T17:06:12.505Z,6.22
2019-05-13T17:08:42.362Z,7.60
2019-05-13T17:11:11.845Z,6.83
2019-05-13T17:13:42.204Z,4.97
2019-05-13T17:16:10.917Z,5.58
2019-05-13T17:18:41.710Z,6.22
2019-05-13T17:21:10.499Z,9.23
2019-05-13T17:23:39.029Z,6.20
2019-05-13T17:26:08.073Z,9.17
2019-05-13T17:28:36.710Z,8.60
2019-05-13T17:31:05.232Z,8.57
2019-05-13T17:33:33.911Z,9.00
2019-05-13T17:36:02.412Z,9.23
2019-05-13T17:38:32.365Z,7.33
2019-05-13T17:41:02.316Z,9.90
2019-05-13T17:43:31.980Z,8.57
2019-05-13T17:46:00.704Z,7.33
2019-05-13T17:48:32.035Z,11.13
2019-05-13T17:51:01.389Z,9.60
2019-05-13T17:53:32.193Z,6.73
2019-05-13T17:56:02.147Z,8.10
2019-05-13T17:58:31.428Z,10.37
2019-05-13T18:01:01.604Z,7.30
2019-05-13T18:03:31.992Z,9.80
2019-05-13T18:06:02.448Z,9.17
2019-05-13T18:08:31.958Z,8.13
2019-05-13T18:11:02.577Z,10.17
2019-05-13T18:13:31.723Z,8.07
2019-05-13T18:16:02.580Z,11.23
2019-05-13T18:18:40.562Z,7.97
2019-05-13T18:21:01.442Z,10.43
2019-05-13T18:23:30.195Z,10.80
2019-05-13T18:25:58.779Z,7.07
2019-05-13T18:28:31.070Z,7.37
2019-05-13T18:30:57.647Z,8.83
2019-05-13T18:33:26.150Z,8.23
2019-05-13T18:35:54.647Z,8.17
2019-05-13T18:38:23.254Z,6.77
2019-05-13T18:40:52.590Z,7.93
2019-05-13T18:43:21.562Z,6.53
2019-05-13T18:45:52.276Z,8.13
2019-05-13T18:48:21.837Z,6.73
2019-05-13T18:50:52.311Z,8.23
2019-05-13T18:53:21.464Z,9.07
2019-05-13T18:55:52.497Z,10.23
2019-05-13T18:58:22.249Z,11.40
2019-05-13T19:00:52.308Z,7.83
2019-05-13T19:03:21.755Z,10.07
2019-05-13T19:05:50.450Z,10.23
2019-05-13T19:08:21.282Z,11.13
2019-05-13T19:10:49.309Z,9.33
2019-05-13T19:13:17.830Z,10.07
2019-05-13T19:15:46.270Z,8.03
2019-05-13T19:18:14.709Z,9.33
2019-05-13T19:20:43.193Z,5.90
2019-05-13T19:23:11.936Z,9.07
2019-05-13T19:25:42.748Z,7.27
2019-05-13T19:28:11.810Z,7.87
2019-05-13T19:30:41.131Z,7.00
2019-05-13T19:33:11.934Z,7.77
2019-05-13T19:35:42.421Z,8.87
2019-05-13T19:38:12.139Z,10.67
2019-05-13T19:40:42.001Z,7.10
2019-05-13T19:43:11.583Z,8.47
2019-05-13T19:45:41.642Z,10.00
2019-05-13T19:48:11.804Z,10.57
2019-05-13T19:50:41.620Z,7.70
2019-05-13T19:53:12.057Z,9.70
2019-05-13T19:55:41.489Z,7.37
2019-05-13T19:58:12.345Z,12.83
2019-05-13T20:00:42.451Z,28.43
2019-05-13T20:03:11.759Z,6.73
2019-05-13T20:05:41.491Z,7.17
2019-05-13T20:08:10.252Z,8.03
2019-05-13T20:10:38.779Z,6.27
2019-05-13T20:13:07.305Z,8.23
2019-05-13T20:15:35.819Z,5.67
2019-05-13T20:18:05.705Z,7.33
2019-05-13T20:20:34.247Z,7.77
2019-05-13T20:23:02.733Z,7.60
2019-05-13T20:25:31.339Z,9.60
2019-05-13T20:28:02.118Z,7.27
2019-05-13T20:30:30.027Z,7.93
2019-05-13T20:32:59.284Z,6.97
2019-05-13T20:35:27.941Z,6.07
2019-05-13T20:37:56.396Z,5.93
2019-05-13T20:40:24.859Z,6.27
2019-05-13T20:42:53.341Z,7.17
2019-05-13T20:45:22.532Z,6.50
2019-05-13T20:47:51.189Z,6.73
2019-05-13T20:50:21.509Z,8.00
2019-05-13T20:52:51.629Z,4.57
2019-05-13T20:55:21.973Z,13.80
2019-05-13T20:57:52.944Z,8.30
2019-05-13T21:00:20.739Z,6.33
2019-05-13T21:02:51.513Z,6.60
2019-05-13T21:05:21.820Z,8.53
2019-05-13T21:07:51.532Z,7.20
2019-05-13T21:10:21.098Z,8.23
2019-05-13T21:12:51.355Z,5.87
2019-05-13T21:15:20.065Z,6.70
2019-05-13T21:17:48.547Z,7.27
2019-05-13T21:20:22.062Z,7.70
2019-05-13T21:22:47.169Z,5.20
2019-05-13T21:25:15.605Z,5.60
2019-05-13T21:27:44.151Z,7.83
2019-05-13T21:30:12.700Z,5.87
2019-05-13T21:32:41.135Z,4.83
2019-05-13T21:35:11.767Z,4.87
2019-05-13T21:37:39.794Z,6.50
2019-05-13T21:40:08.277Z,6.17
2019-05-13T21:42:36.792Z,5.00
2019-05-13T21:45:07.387Z,8.10
2019-05-13T21:47:35.863Z,7.43
2019-05-13T21:50:06.278Z,7.07
2019-05-13T21:52:34.807Z,7.47
2019-05-13T21:55:03.525Z,5.63
2019-05-13T21:57:33.136Z,5.77
2019-05-13T22:00:02.154Z,5.97
2019-05-13T22:02:31.690Z,4.93
2019-05-13T22:05:01.102Z,5.53
2019-05-13T22:07:31.540Z,7.10
2019-05-13T22:10:01.987Z,9.47
2019-05-13T22:12:32.026Z,7.43
2019-05-13T22:15:00.954Z,6.13
2019-05-13T22:17:31.575Z,8.80
2019-05-13T22:20:01.794Z,6.00
2019-05-13T22:22:32.074Z,5.13
2019-05-13T22:25:01.935Z,7.50
2019-05-13T22:27:31.582Z,6.17
2019-05-13T22:30:01.308Z,8.90
2019-05-13T22:32:29.959Z,7.33
2019-05-13T22:34:58.454Z,5.23
2019-05-13T22:37:27.015Z,7.27
2019-05-13T22:39:55.603Z,6.63
2019-05-13T22:42:24.252Z,7.30
2019-05-13T22:44:52.823Z,5.07
2019-05-13T22:47:21.969Z,8.53
2019-05-13T22:49:50.637Z,5.93
2019-05-13T22:52:21.687Z,6.50
2019-05-13T22:54:51.669Z,11.57
2019-05-13T22:57:21.771Z,6.30
2019-05-13T22:59:51.871Z,3.93
2019-05-13T23:02:21.945Z,5.70
2019-05-13T23:04:51.169Z,7.10
2019-05-13T23:07:22.169Z,6.73
2019-05-13T23:09:51.950Z,6.13
2019-05-13T23:12:21.287Z,8.00
2019-05-13T23:14:51.853Z,5.53
2019-05-13T23:17:21.595Z,11.60
2019-05-13T23:19:52.176Z,8.43
2019-05-13T23:22:20.412Z,4.60
2019-05-13T23:24:49.001Z,5.27
2019-05-13T23:27:17.755Z,9.73
2019-05-13T23:29:46.287Z,4.83
2019-05-13T23:32:14.743Z,7.50
2019-05-13T23:34:43.217Z,5.63
2019-05-13T23:37:11.922Z,6.93
2019-05-13T23:39:41.627Z,4.13
2019-05-13T23:42:12.088Z,9.80
2019-05-13T23:44:41.464Z,9.07
2019-05-13T23:47:11.510Z,6.07
2019-05-13T23:49:42.147Z,7.13
2019-05-13T23:52:11.767Z,6.00
2019-05-13T23:54:42.433Z,9.07
2019-05-13T23:57:11.785Z,5.43
2019-05-13T23:59:41.897Z,5.40
